createdAt,value
2019-02-15T00:00:00.306Z,16.80
2019-02-15T00:02:29.520Z,16.10
2019-02-15T00:04:57.313Z,18.37
2019-02-15T00:07:25.089Z,17.03
2019-02-15T00:09:52.947Z,18.33
2019-02-15T00:12:20.733Z,17.53
2019-02-15T00:14:48.871Z,15.30
2019-02-15T00:17:18.301Z,13.90
2019-02-15T00:19:50.671Z,15.73
2019-02-15T00:22:18.541Z,25.73
2019-02-15T00:24:46.387Z,24.00
2019-02-15T00:27:14.134Z,46.80
2019-02-15T00:29:41.940Z,17.87
2019-02-15T00:32:09.803Z,14.03
2019-02-15T00:34:37.671Z,13.77
2019-02-15T00:37:05.544Z,16.40
2019-02-15T00:39:33.215Z,16.97
2019-02-15T00:42:01.081Z,19.20
2019-02-15T00:44:28.837Z,20.50
2019-02-15T00:47:04.185Z,19.47
2019-02-15T00:49:33.898Z,17.67
2019-02-15T00:52:19.373Z,18.00
2019-02-15T00:54:51.092Z,17.93
2019-02-15T00:57:29.661Z,17.70
2019-02-15T01:00:08.099Z,18.77
2019-02-15T01:02:37.478Z,14.63
2019-02-15T01:05:07.226Z,15.37
2019-02-15T01:07:36.595Z,17.67
2019-02-15T01:10:09.971Z,21.87
2019-02-15T01:12:41.924Z,22.53
2019-02-15T01:15:10.130Z,22.10
2019-02-15T01:17:37.786Z,23.40
2019-02-15T01:20:05.618Z,22.90
2019-02-15T01:22:33.525Z,22.57
2019-02-15T01:25:01.299Z,23.13
2019-02-15T01:27:33.485Z,23.67
2019-02-15T01:30:02.865Z,25.33
2019-02-15T01:32:32.269Z,24.03
2019-02-15T01:35:01.675Z,23.03
2019-02-15T01:37:30.969Z,26.57
2019-02-15T01:40:06.320Z,32.20
2019-02-15T01:42:44.320Z,28.30
2019-02-15T01:45:13.632Z,27.03
2019-02-15T01:47:41.683Z,25.53
2019-02-15T01:53:06.109Z,27.93
2019-02-15T01:55:33.876Z,23.67
2019-02-15T01:58:01.527Z,25.17
2019-02-15T02:00:31.152Z,26.10
2019-02-15T02:02:59.021Z,24.33
2019-02-15T02:05:26.651Z,24.17
2019-02-15T02:07:54.485Z,22.63
2019-02-15T02:10:22.223Z,23.63
2019-02-15T02:12:49.955Z,26.53
2019-02-15T02:15:17.742Z,25.90
2019-02-15T02:17:45.515Z,26.27
2019-02-15T02:20:13.484Z,27.53
2019-02-15T02:22:41.455Z,25.13
2019-02-15T02:25:09.151Z,24.13
2019-02-15T02:27:36.891Z,26.07
2019-02-15T02:30:07.897Z,24.25
2019-02-15T02:32:35.794Z,24.00
2019-02-15T02:35:04.273Z,25.63
2019-02-15T02:37:32.031Z,23.47
2019-02-15T02:39:59.805Z,27.00
2019-02-15T02:42:27.573Z,23.00
2019-02-15T02:44:55.441Z,24.43
2019-02-15T02:47:23.217Z,25.77
2019-02-15T02:49:51.081Z,27.70
2019-02-15T02:52:18.857Z,28.67
2019-02-15T02:54:46.610Z,28.27
2019-02-15T02:57:14.536Z,28.27
2019-02-15T02:59:42.459Z,30.13
2019-02-15T03:02:10.196Z,28.43
2019-02-15T03:04:38.091Z,29.03
2019-02-15T03:07:06.062Z,27.70
2019-02-15T03:09:33.827Z,31.97
2019-02-15T03:12:01.536Z,29.47
2019-02-15T03:14:29.564Z,29.77
2019-02-15T03:16:57.420Z,32.47
2019-02-15T03:19:25.113Z,27.20
2019-02-15T03:21:52.836Z,27.33
2019-02-15T03:24:20.723Z,27.97
2019-02-15T03:26:48.497Z,27.63
2019-02-15T03:29:16.250Z,28.93
2019-02-15T03:31:44.021Z,30.33
2019-02-15T03:34:11.782Z,30.63
2019-02-15T03:36:41.004Z,28.53
2019-02-15T03:39:13.144Z,30.40
2019-02-15T03:41:40.813Z,30.63
2019-02-15T03:44:08.449Z,29.57
2019-02-15T03:46:36.345Z,30.50
2019-02-15T03:49:03.990Z,31.27
2019-02-15T03:51:31.774Z,32.10
2019-02-15T03:53:59.449Z,31.73
2019-02-15T03:56:27.123Z,30.73
2019-02-15T03:58:54.872Z,32.43
2019-02-15T04:01:22.650Z,30.67
2019-02-15T04:03:50.507Z,31.60
2019-02-15T04:06:18.365Z,33.93
2019-02-15T04:08:46.025Z,34.63
2019-02-15T04:11:13.914Z,32.20
2019-02-15T04:13:41.775Z,31.63
2019-02-15T04:16:09.536Z,33.50
2019-02-15T04:18:37.510Z,32.33
2019-02-15T04:21:05.269Z,34.93
2019-02-15T04:23:33.143Z,45.20
2019-02-15T04:26:00.825Z,42.40
2019-02-15T04:28:28.686Z,34.90
2019-02-15T04:30:56.441Z,37.33
2019-02-15T04:33:24.205Z,38.40
2019-02-15T04:35:52.079Z,35.97
2019-02-15T04:38:19.775Z,35.57
2019-02-15T04:40:47.517Z,34.57
2019-02-15T04:43:15.132Z,36.60
2019-02-15T04:45:42.916Z,34.53
2019-02-15T04:48:10.703Z,38.63
2019-02-15T04:50:38.464Z,39.37
2019-02-15T04:53:06.230Z,42.93
2019-02-15T04:55:34.009Z,40.10
2019-02-15T04:58:01.864Z,38.43
2019-02-15T05:00:29.528Z,36.17
2019-02-15T05:02:57.298Z,35.20
2019-02-15T05:05:25.167Z,36.77
2019-02-15T05:07:52.843Z,35.40
2019-02-15T05:10:20.602Z,33.90
2019-02-15T05:12:48.476Z,37.87
2019-02-15T05:15:16.123Z,35.60
2019-02-15T05:17:43.992Z,36.10
2019-02-15T05:20:11.860Z,39.50
2019-02-15T05:22:39.730Z,38.77
2019-02-15T05:25:07.603Z,40.27
2019-02-15T05:27:35.576Z,38.40
2019-02-15T05:30:03.320Z,40.33
2019-02-15T05:32:31.101Z,44.97
2019-02-15T05:34:58.968Z,48.03
2019-02-15T05:37:26.835Z,42.63
2019-02-15T05:39:54.467Z,44.07
2019-02-15T05:42:22.269Z,48.27
2019-02-15T05:44:49.917Z,44.80
2019-02-15T05:47:17.692Z,43.10
2019-02-15T05:49:45.480Z,41.87
2019-02-15T05:52:13.329Z,40.60
2019-02-15T05:54:40.983Z,40.60
2019-02-15T05:57:09.660Z,39.90
2019-02-15T05:59:37.645Z,39.13
2019-02-15T06:02:05.524Z,36.87
2019-02-15T06:04:33.335Z,36.37
2019-02-15T06:07:01.039Z,39.20
2019-02-15T06:09:28.827Z,37.10
2019-02-15T06:11:56.594Z,41.37
2019-02-15T06:14:24.331Z,40.10
2019-02-15T06:16:52.127Z,40.53
2019-02-15T06:19:19.879Z,40.27
2019-02-15T06:21:47.753Z,39.97
2019-02-15T06:24:15.512Z,42.97
2019-02-15T06:26:43.289Z,41.10
2019-02-15T06:29:10.978Z,39.27
2019-02-15T06:31:38.722Z,39.10
2019-02-15T06:34:06.474Z,36.17
2019-02-15T06:36:35.573Z,27.17
2019-02-15T06:39:04.900Z,27.93
2019-02-15T06:41:32.623Z,25.47
2019-02-15T06:44:00.401Z,24.93
2019-02-15T06:46:28.055Z,24.53
2019-02-15T06:48:55.721Z,27.83
2019-02-15T06:51:23.503Z,28.23
2019-02-15T06:53:51.167Z,30.70
2019-02-15T06:56:19.029Z,34.17
2019-02-15T06:59:04.811Z,33.00
2019-02-15T07:01:39.958Z,31.00
2019-02-15T07:04:24.660Z,29.67
2019-02-15T07:06:52.371Z,33.93
2019-02-15T07:09:20.156Z,37.43
2019-02-15T07:11:48.081Z,36.20
2019-02-15T07:14:15.825Z,34.27
2019-02-15T07:16:43.659Z,34.73
2019-02-15T07:19:11.527Z,34.30
2019-02-15T07:21:39.275Z,23.40
2019-02-15T07:24:07.056Z,23.80
2019-02-15T07:26:34.663Z,23.87
2019-02-15T07:29:02.493Z,23.87
2019-02-15T07:31:30.359Z,26.67
2019-02-15T07:33:58.220Z,27.77
2019-02-15T07:36:25.981Z,28.27
2019-02-15T07:38:53.854Z,26.53
2019-02-15T07:41:21.620Z,28.20
2019-02-15T07:43:49.531Z,30.50
2019-02-15T07:46:17.357Z,30.70
2019-02-15T07:48:45.012Z,29.17
2019-02-15T07:51:12.771Z,29.03
2019-02-15T07:53:40.558Z,30.23
2019-02-15T07:56:08.528Z,30.50
2019-02-15T07:58:36.403Z,31.57
2019-02-15T08:01:04.264Z,29.30
2019-02-15T08:03:31.960Z,27.83
2019-02-15T08:05:59.699Z,29.97
2019-02-15T08:08:27.665Z,33.20
2019-02-15T08:10:55.344Z,33.03
2019-02-15T08:13:23.197Z,33.70
2019-02-15T08:15:52.254Z,37.07
2019-02-15T08:18:20.245Z,37.23
2019-02-15T08:20:48.073Z,38.10
2019-02-15T08:23:15.890Z,40.07
2019-02-15T08:25:43.544Z,38.37
2019-02-15T08:28:11.411Z,38.47
2019-02-15T08:30:39.210Z,43.97
2019-02-15T08:33:07.119Z,40.87
2019-02-15T08:35:34.939Z,37.70
2019-02-15T08:38:02.575Z,36.20
2019-02-15T08:40:30.263Z,36.97
2019-02-15T08:42:58.134Z,32.57
2019-02-15T08:45:26.044Z,32.70
2019-02-15T08:47:53.969Z,33.10
2019-02-15T08:50:21.686Z,28.90
2019-02-15T08:52:49.393Z,32.07
2019-02-15T08:55:17.039Z,33.70
2019-02-15T08:57:44.712Z,34.23
2019-02-15T09:00:12.889Z,35.30
2019-02-15T09:02:40.658Z,33.47
2019-02-15T09:05:09.658Z,30.17
2019-02-15T09:07:37.424Z,29.37
2019-02-15T09:10:07.240Z,27.60
2019-02-15T09:12:35.002Z,28.23
2019-02-15T09:15:02.777Z,27.27
2019-02-15T09:17:30.516Z,28.70
2019-02-15T09:19:58.297Z,26.00
2019-02-15T09:22:26.001Z,26.27
2019-02-15T09:24:55.475Z,27.27
2019-02-15T09:27:28.050Z,29.90
2019-02-15T09:29:55.920Z,27.77
2019-02-15T09:32:23.685Z,27.47
2019-02-15T09:34:51.656Z,22.30
2019-02-15T09:37:19.524Z,24.80
2019-02-15T09:39:47.496Z,24.90
2019-02-15T09:42:15.346Z,25.60
2019-02-15T09:44:43.120Z,22.77
2019-02-15T09:47:10.997Z,22.17
2019-02-15T09:49:38.761Z,21.83
2019-02-15T09:52:06.525Z,21.47
2019-02-15T09:54:34.409Z,16.77
2019-02-15T09:57:02.219Z,21.70
2019-02-15T09:59:30.133Z,22.30
2019-02-15T10:01:57.792Z,22.83
2019-02-15T10:04:25.769Z,23.17
2019-02-15T10:06:53.412Z,20.07
2019-02-15T10:09:21.298Z,21.47
2019-02-15T10:11:49.047Z,22.97
2019-02-15T10:14:16.790Z,22.63
2019-02-15T10:16:44.544Z,20.50
2019-02-15T10:19:12.365Z,18.90
2019-02-15T10:21:40.334Z,17.97
2019-02-15T10:24:07.964Z,17.93
2019-02-15T10:26:35.656Z,16.60
2019-02-15T10:29:03.307Z,25.07
2019-02-15T10:31:31.101Z,20.63
2019-02-15T10:33:58.960Z,20.23
2019-02-15T10:36:26.658Z,21.17
2019-02-15T10:38:54.485Z,20.53
2019-02-15T10:41:22.203Z,21.03
2019-02-15T10:43:49.921Z,19.37
2019-02-15T10:46:17.631Z,17.10
2019-02-15T10:48:45.278Z,19.70
2019-02-15T10:51:13.022Z,18.97
2019-02-15T10:53:40.773Z,18.73
2019-02-15T10:56:08.541Z,19.70
2019-02-15T10:58:36.318Z,23.80
2019-02-15T11:01:04.181Z,22.07
2019-02-15T11:03:31.950Z,18.43
2019-02-15T11:05:59.620Z,16.33
2019-02-15T11:08:27.375Z,17.73
2019-02-15T11:10:55.155Z,17.10
2019-02-15T11:13:22.910Z,15.30
2019-02-15T11:15:50.614Z,16.63
2019-02-15T11:18:18.428Z,16.90
2019-02-15T11:20:46.085Z,17.73
2019-02-15T11:23:13.970Z,16.50
2019-02-15T11:25:41.839Z,20.17
2019-02-15T11:28:09.472Z,19.17
2019-02-15T11:30:37.364Z,16.20
2019-02-15T11:33:05.147Z,16.47
2019-02-15T11:35:33.006Z,14.67
2019-02-15T11:38:00.764Z,13.97
2019-02-15T11:40:28.404Z,12.97
2019-02-15T11:42:56.136Z,13.03
2019-02-15T11:45:23.964Z,13.57
2019-02-15T11:47:51.645Z,13.87
2019-02-15T11:50:19.417Z,14.10
2019-02-15T11:52:47.253Z,13.70
2019-02-15T11:55:15.234Z,13.70
2019-02-15T11:57:43.202Z,14.40
2019-02-15T12:00:17.843Z,9.93
2019-02-15T12:02:45.557Z,17.70
2019-02-15T12:05:13.582Z,14.73
2019-02-15T12:07:41.533Z,14.73
2019-02-15T12:10:10.014Z,13.23
2019-02-15T12:12:37.801Z,13.67
2019-02-15T12:15:06.669Z,11.97
2019-02-15T12:17:34.578Z,10.73
2019-02-15T12:20:02.322Z,10.67
2019-02-15T12:22:30.060Z,11.77
2019-02-15T12:24:57.843Z,11.70
2019-02-15T12:27:25.626Z,10.60
2019-02-15T12:29:53.479Z,9.53
2019-02-15T12:32:21.172Z,12.53
2019-02-15T12:34:49.109Z,12.80
2019-02-15T12:37:16.887Z,10.50
2019-02-15T12:39:45.023Z,10.27
2019-02-15T12:42:12.826Z,11.17
2019-02-15T12:44:40.594Z,12.20
2019-02-15T12:47:14.886Z,12.13
2019-02-15T12:49:37.754Z,10.30
2019-02-15T12:52:05.439Z,11.83
2019-02-15T12:54:33.168Z,10.53
2019-02-15T12:57:00.959Z,10.37
2019-02-15T12:59:28.689Z,10.80
2019-02-15T13:01:56.586Z,13.80
2019-02-15T13:04:24.446Z,10.20
2019-02-15T13:06:52.210Z,9.60
2019-02-15T13:09:19.864Z,11.10
2019-02-15T13:11:47.543Z,13.93
2019-02-15T13:14:15.415Z,14.27
2019-02-15T13:16:44.574Z,14.63
2019-02-15T13:19:12.384Z,13.47
2019-02-15T13:21:40.024Z,14.13
2019-02-15T13:24:07.809Z,14.83
2019-02-15T13:26:35.565Z,13.63
2019-02-15T13:29:03.482Z,13.97
2019-02-15T13:31:31.316Z,12.70
2019-02-15T13:33:59.060Z,12.30
2019-02-15T13:45:39.194Z,12.17
2019-02-15T13:48:07.007Z,12.50
2019-02-15T13:50:34.710Z,10.83
2019-02-15T13:53:02.398Z,11.93
2019-02-15T13:55:30.166Z,13.93
2019-02-15T14:00:59.412Z,12.47
2019-02-15T14:03:27.166Z,12.67
2019-02-15T14:05:54.915Z,12.37
2019-02-15T14:08:22.573Z,13.70
2019-02-15T14:10:50.589Z,12.90
2019-02-15T14:13:18.734Z,15.20
2019-02-15T14:15:46.499Z,11.63
2019-02-15T14:18:14.225Z,11.73
2019-02-15T14:20:42.124Z,10.23
2019-02-15T14:23:09.997Z,9.30
2019-02-15T14:25:37.636Z,9.60
2019-02-15T14:28:05.423Z,12.33
2019-02-15T14:30:33.183Z,12.67
2019-02-15T14:33:00.953Z,14.27
2019-02-15T14:35:28.619Z,15.63
2019-02-15T14:37:56.481Z,14.77
2019-02-15T14:40:24.354Z,12.63
2019-02-15T14:42:52.121Z,13.00
2019-02-15T14:45:19.767Z,14.17
2019-02-15T14:47:54.285Z,17.85
2019-02-15T14:50:17.269Z,14.83
2019-02-15T14:52:45.137Z,14.10
2019-02-15T14:55:13.202Z,15.17
2019-02-15T14:57:40.954Z,16.27
2019-02-15T15:23:25.902Z,33.10
2019-02-15T15:25:53.671Z,27.20
2019-02-15T15:28:21.545Z,35.23
2019-02-15T15:30:49.405Z,18.70
2019-02-15T15:33:17.584Z,18.40
2019-02-15T15:35:45.344Z,18.87
2019-02-15T15:38:13.319Z,16.77
2019-02-15T15:43:35.885Z,37.67
2019-02-15T15:46:03.655Z,17.63
2019-02-15T15:48:31.624Z,38.97
2019-02-15T15:50:59.391Z,109.80
2019-02-15T15:53:27.157Z,84.60
2019-02-15T15:55:54.918Z,59.53
2019-02-15T15:58:22.694Z,48.47
2019-02-15T16:00:50.403Z,21.50
2019-02-15T16:03:18.219Z,20.53
2019-02-15T16:05:45.941Z,13.40
2019-02-15T16:08:13.583Z,15.50
2019-02-15T16:10:41.292Z,21.27
2019-02-15T16:13:09.049Z,35.73
2019-02-15T16:15:36.725Z,47.37
2019-02-15T16:18:05.227Z,58.15
2019-02-15T16:20:32.978Z,56.00
2019-02-15T16:23:00.695Z,41.53
2019-02-15T16:25:28.360Z,47.27
2019-02-15T16:27:56.066Z,64.40
2019-02-15T16:30:23.846Z,27.37
2019-02-15T16:32:51.533Z,78.50
2019-02-15T16:35:19.366Z,43.20
2019-02-15T16:37:47.379Z,43.60
2019-02-15T16:40:15.525Z,49.13
2019-02-15T16:42:43.250Z,25.67
2019-02-15T16:45:12.075Z,22.47
2019-02-15T16:47:39.849Z,24.03
2019-02-15T16:50:08.027Z,20.60
2019-02-15T16:52:35.761Z,20.60
2019-02-15T16:55:12.372Z,24.70
2019-02-15T16:57:33.386Z,13.87
2019-02-15T17:00:01.052Z,9.93
2019-02-15T17:02:29.009Z,9.37
2019-02-15T17:04:56.764Z,14.57
2019-02-15T17:07:24.527Z,12.60
2019-02-15T17:09:52.301Z,10.80
2019-02-15T17:12:20.048Z,13.07
2019-02-15T17:14:48.053Z,9.60
2019-02-15T17:17:15.702Z,9.20
2019-02-15T17:19:43.438Z,8.90
2019-02-15T17:22:11.542Z,10.10
2019-02-15T17:24:39.408Z,9.40
2019-02-15T17:27:07.151Z,9.57
2019-02-15T17:29:34.937Z,10.73
2019-02-15T17:32:02.610Z,11.07
2019-02-15T17:34:30.361Z,10.47
2019-02-15T17:36:58.135Z,9.50
2019-02-15T17:39:25.997Z,9.70
2019-02-15T17:41:53.870Z,12.27
2019-02-15T17:44:21.937Z,14.13
2019-02-15T17:46:49.716Z,14.37
2019-02-15T17:49:17.576Z,18.60
2019-02-15T17:51:45.278Z,15.47
2019-02-15T17:54:13.001Z,17.03
2019-02-15T17:56:40.976Z,17.83
2019-02-15T17:59:09.015Z,17.55
2019-02-15T18:01:36.814Z,14.27
2019-02-15T18:04:05.363Z,12.73
2019-02-15T18:06:33.053Z,13.23
2019-02-15T18:09:00.763Z,9.80
2019-02-15T18:11:28.462Z,10.00
2019-02-15T18:13:56.266Z,12.40
2019-02-15T18:16:23.908Z,13.83
2019-02-15T18:18:51.652Z,21.20
2019-02-15T18:21:19.292Z,16.20
2019-02-15T18:23:47.122Z,20.10
2019-02-15T18:26:14.888Z,17.50
2019-02-15T18:28:42.645Z,17.03
2019-02-15T18:31:10.421Z,9.97
2019-02-15T18:33:38.174Z,12.20
2019-02-15T18:36:05.958Z,12.63
2019-02-15T18:38:33.810Z,12.00
2019-02-15T18:41:01.584Z,12.00
2019-02-15T18:43:29.551Z,11.67
2019-02-15T18:45:57.340Z,12.57
2019-02-15T18:48:24.967Z,11.50
2019-02-15T18:50:52.745Z,8.70
2019-02-15T18:53:20.440Z,9.17
2019-02-15T18:55:48.165Z,8.73
2019-02-15T18:58:15.860Z,8.97
2019-02-15T19:00:44.169Z,10.03
2019-02-15T19:03:11.916Z,10.33
2019-02-15T19:05:39.581Z,14.17
2019-02-15T19:08:07.312Z,10.83
2019-02-15T19:10:34.988Z,9.50
2019-02-15T19:13:02.665Z,9.07
2019-02-15T19:15:30.330Z,9.10
2019-02-15T19:17:58.042Z,11.03
2019-02-15T19:20:25.778Z,10.07
2019-02-15T19:22:53.416Z,10.00
2019-02-15T19:25:21.132Z,10.40
2019-02-15T19:27:48.800Z,11.47
2019-02-15T19:30:17.685Z,13.23
2019-02-15T19:32:45.455Z,15.03
2019-02-15T19:35:13.249Z,25.87
2019-02-15T19:37:40.908Z,28.17
2019-02-15T19:40:10.041Z,22.77
2019-02-15T19:42:37.713Z,10.33
2019-02-15T19:45:06.862Z,10.50
2019-02-15T19:47:34.561Z,9.53
2019-02-15T19:50:02.220Z,12.67
2019-02-15T19:52:29.990Z,11.60
2019-02-15T19:54:57.693Z,12.87
2019-02-15T19:57:25.398Z,13.70
2019-02-15T19:59:54.209Z,14.07
2019-02-15T20:02:22.079Z,15.20
2019-02-15T20:04:49.813Z,14.23
2019-02-15T20:07:17.793Z,13.73
2019-02-15T20:09:45.420Z,14.07
2019-02-15T20:12:13.091Z,14.03
2019-02-15T20:14:40.815Z,14.30
2019-02-15T20:17:08.485Z,14.67
2019-02-15T20:19:36.283Z,15.37
2019-02-15T20:22:03.964Z,13.20
2019-02-15T20:24:31.690Z,12.60
2019-02-15T20:26:59.384Z,11.63
2019-02-15T20:29:27.111Z,11.03
2019-02-15T20:31:54.810Z,10.40
2019-02-15T20:34:22.511Z,10.03
2019-02-15T20:36:50.244Z,11.53
2019-02-15T20:39:17.946Z,10.30
2019-02-15T20:41:45.586Z,11.90
2019-02-15T20:44:13.318Z,13.40
2019-02-15T20:46:41.086Z,13.37
2019-02-15T20:49:08.756Z,16.33
2019-02-15T20:51:36.466Z,12.47
2019-02-15T20:54:04.164Z,13.27
2019-02-15T20:56:31.800Z,12.67
2019-02-15T20:58:59.555Z,13.10
2019-02-15T21:01:27.253Z,13.90
2019-02-15T21:03:55.029Z,14.23
2019-02-15T21:06:22.722Z,16.80
2019-02-15T21:08:50.390Z,12.80
2019-02-15T21:11:18.088Z,13.33
2019-02-15T21:13:45.811Z,14.13
2019-02-15T21:16:13.526Z,14.77
2019-02-15T21:18:41.326Z,13.50
2019-02-15T21:21:08.994Z,12.83
2019-02-15T21:23:36.673Z,13.63
2019-02-15T21:26:05.394Z,15.53
2019-02-15T21:28:33.043Z,15.47
2019-02-15T21:31:00.774Z,17.93
2019-02-15T21:33:28.448Z,20.90
2019-02-15T21:35:56.121Z,23.00
2019-02-15T21:38:23.818Z,24.00
2019-02-15T21:40:51.494Z,23.43
2019-02-15T21:43:19.257Z,21.43
2019-02-15T21:45:46.946Z,22.73
2019-02-15T21:48:14.677Z,21.87
2019-02-15T21:50:42.387Z,20.90
2019-02-15T21:53:10.129Z,20.47
2019-02-15T21:55:37.900Z,20.27
2019-02-15T21:58:05.560Z,19.93
2019-02-15T22:00:33.404Z,18.53
2019-02-15T22:03:01.085Z,18.17
2019-02-15T22:05:28.770Z,19.47
2019-02-15T22:07:56.441Z,19.70
2019-02-15T22:10:24.194Z,19.80
2019-02-15T22:12:51.969Z,21.03
2019-02-15T22:15:19.603Z,21.10
2019-02-15T22:17:47.283Z,21.43
2019-02-15T22:20:15.429Z,21.07
2019-02-15T22:22:43.080Z,23.50
2019-02-15T22:25:10.795Z,22.43
2019-02-15T22:27:38.438Z,19.90
2019-02-15T22:30:16.941Z,21.10
2019-02-15T22:32:44.640Z,22.10
2019-02-15T22:35:12.387Z,22.67
2019-02-15T22:37:40.104Z,23.07
2019-02-15T22:40:24.446Z,24.33
2019-02-15T22:42:52.120Z,24.33
2019-02-15T22:45:19.765Z,21.70
2019-02-15T22:47:47.439Z,22.70
2019-02-15T22:50:15.188Z,24.13
2019-02-15T22:52:43.243Z,25.87
2019-02-15T22:55:10.920Z,27.50
2019-02-15T22:57:38.612Z,34.07
2019-02-15T23:00:13.017Z,40.00
2019-02-15T23:02:37.135Z,42.43
2019-02-15T23:05:05.284Z,43.60
2019-02-15T23:07:32.961Z,38.97
2019-02-15T23:10:00.629Z,36.60
2019-02-15T23:12:28.353Z,35.10
2019-02-15T23:14:56.145Z,36.63
2019-02-15T23:17:24.018Z,36.10
2019-02-15T23:19:51.789Z,38.23
2019-02-15T23:22:19.544Z,40.03
2019-02-15T23:24:47.423Z,42.70
2019-02-15T23:27:15.080Z,39.93
2019-02-15T23:29:42.954Z,38.97
2019-02-15T23:32:10.609Z,40.80
2019-02-15T23:34:38.382Z,40.03
2019-02-15T23:37:06.354Z,39.63
2019-02-15T23:39:34.130Z,40.23
2019-02-15T23:42:01.884Z,39.03
2019-02-15T23:44:29.661Z,38.70
2019-02-15T23:46:57.287Z,39.37
2019-02-15T23:49:25.694Z,38.87
2019-02-15T23:51:53.564Z,38.73
2019-02-15T23:54:21.328Z,40.33
2019-02-15T23:56:49.102Z,37.97
2019-02-15T23:59:17.168Z,39.53
